Time;durP1;ratioP1;P1;durP2;ratioP2;P2;SDS_P1;SDS_P2;PMS_P1;PMS_P2;Temp;Humidity;BMP_temperature;BMP_pressure;BME280_temperature;BME280_humidity;BME280_pressure;Samples;Min_cycle;Max_cycle;Signal;HPM_P1;HPM_P2
2023/06/30 00:02:06;;;;;;;5.78;2.22;;;23.10;65.60;;;;;;5072866;28;20113;-73
2023/06/30 00:04:32;;;;;;;2.97;2.10;;;23.10;65.70;;;;;;5072676;28;20427;-73
2023/06/30 00:06:59;;;;;;;3.05;2.13;;;23.10;65.70;;;;;;5071432;28;20020;-73
2023/06/30 00:09:25;;;;;;;6.05;2.33;;;23.00;65.70;;;;;;5072433;28;20074;-73
2023/06/30 00:11:53;;;;;;;5.68;2.30;;;23.00;65.80;;;;;;5072624;28;20108;-73
2023/06/30 00:14:20;;;;;;;3.13;2.20;;;23.00;65.80;;;;;;5072692;28;21010;-73
2023/06/30 00:16:47;;;;;;;5.60;2.40;;;23.00;65.80;;;;;;5072353;28;20048;-73
2023/06/30 00:19:13;;;;;;;6.47;2.92;;;22.90;65.90;;;;;;5072234;28;20025;-73
2023/06/30 00:21:43;;;;;;;3.17;1.95;;;22.90;66.00;;;;;;5072176;28;20511;-74
2023/06/30 00:24:10;;;;;;;4.40;2.13;;;22.90;66.20;;;;;;5072894;28;20021;-73
2023/06/30 00:26:36;;;;;;;8.93;2.20;;;22.80;66.30;;;;;;5072571;28;20031;-74
2023/06/30 00:29:02;;;;;;;4.65;2.30;;;22.80;66.50;;;;;;5072565;28;20017;-72
2023/06/30 00:31:28;;;;;;;5.63;2.42;;;22.80;66.60;;;;;;5072374;28;20040;-73
2023/06/30 00:33:55;;;;;;;8.32;2.60;;;22.80;66.50;;;;;;5072651;28;20016;-73
2023/06/30 00:36:21;;;;;;;6.15;2.20;;;22.70;66.50;;;;;;5072700;28;20127;-73
2023/06/30 00:38:47;;;;;;;7.05;2.30;;;22.70;66.70;;;;;;5072432;28;20025;-73
2023/06/30 00:41:13;;;;;;;7.35;2.25;;;22.70;66.70;;;;;;5072438;28;20111;-73
2023/06/30 00:43:39;;;;;;;3.10;2.22;;;22.70;66.60;;;;;;5072449;28;20082;-74
2023/06/30 00:46:06;;;;;;;3.78;1.90;;;22.70;66.70;;;;;;5072542;28;20029;-73
2023/06/30 00:48:32;;;;;;;10.65;2.20;;;22.70;66.70;;;;;;5071099;28;20123;-74
2023/06/30 00:50:58;;;;;;;4.00;2.10;;;22.60;66.70;;;;;;5072480;28;20423;-74
2023/06/30 00:53:25;;;;;;;4.57;2.00;;;22.60;66.80;;;;;;5072503;28;20484;-74
2023/06/30 00:55:50;;;;;;;6.18;2.05;;;22.60;66.90;;;;;;5071976;28;20104;-74
2023/06/30 00:58:17;;;;;;;2.80;2.10;;;22.60;67.00;;;;;;5070778;28;20120;-74
2023/06/30 01:00:44;;;;;;;6.57;2.50;;;22.60;67.20;;;;;;5069316;28;20020;-75
2023/06/30 01:03:25;;;;;;;6.40;2.40;;;22.50;67.50;;;;;;5069436;28;20028;-74
2023/06/30 01:06:00;;;;;;;4.45;2.00;;;22.50;67.80;;;;;;5071505;28;20025;-75
2023/06/30 01:08:48;;;;;;;8.60;2.40;;;22.50;68.00;;;;;;5072157;28;20017;-74
2023/06/30 01:11:15;;;;;;;10.23;2.60;;;22.50;68.00;;;;;;5072533;28;20126;-74
2023/06/30 01:13:42;;;;;;;3.80;2.20;;;22.50;68.00;;;;;;5070420;28;20500;-74
2023/06/30 01:16:12;;;;;;;4.60;2.50;;;22.40;68.20;;;;;;5071855;28;20040;-73
2023/06/30 01:18:41;;;;;;;4.95;2.40;;;22.40;68.50;;;;;;5071956;28;20036;-75
2023/06/30 01:21:12;;;;;;;3.70;2.40;;;22.40;68.80;;;;;;5073130;28;20400;-74
2023/06/30 01:23:45;;;;;;;11.25;2.33;;;22.40;68.80;;;;;;5075504;28;20020;-74
2023/06/30 01:26:12;;;;;;;7.50;2.20;;;22.30;69.30;;;;;;5075539;28;20036;-74
2023/06/30 01:28:38;;;;;;;3.10;2.10;;;22.40;68.90;;;;;;5075263;28;20487;-74
2023/06/30 01:31:08;;;;;;;2.72;2.03;;;22.30;68.80;;;;;;5074300;28;20025;-74
2023/06/30 01:33:36;;;;;;;7.13;2.30;;;22.30;68.60;;;;;;5075622;28;20575;-74
2023/06/30 01:36:02;;;;;;;3.40;1.90;;;22.30;68.50;;;;;;5075363;28;20102;-76
2023/06/30 01:38:28;;;;;;;6.57;2.30;;;22.30;68.40;;;;;;5075479;28;20039;-74
2023/06/30 01:40:55;;;;;;;4.93;1.90;;;22.30;68.40;;;;;;5075133;28;20489;-75
2023/06/30 01:43:21;;;;;;;6.78;2.00;;;22.20;68.70;;;;;;5074992;28;20420;-75
2023/06/30 01:45:47;;;;;;;6.10;2.50;;;22.20;68.40;;;;;;5075153;28;20092;-75
2023/06/30 01:48:13;;;;;;;3.85;2.20;;;22.30;68.10;;;;;;5075120;28;20491;-74
2023/06/30 01:50:39;;;;;;;4.47;2.35;;;22.20;68.00;;;;;;5075392;28;20021;-75
2023/06/30 01:53:05;;;;;;;5.85;2.33;;;22.20;68.10;;;;;;5075109;28;20031;-74
2023/06/30 01:55:32;;;;;;;4.30;2.40;;;22.20;68.50;;;;;;5075234;28;20024;-75
2023/06/30 01:57:58;;;;;;;4.18;2.22;;;22.20;68.70;;;;;;5075075;28;20028;-74
2023/06/30 02:00:23;;;;;;;3.03;2.30;;;22.20;68.70;;;;;;5074854;28;20086;-75
2023/06/30 02:02:49;;;;;;;4.70;2.60;;;22.20;68.70;;;;;;5074967;28;20120;-74
2023/06/30 02:05:15;;;;;;;3.25;2.35;;;22.10;68.70;;;;;;5074787;28;20025;-75
2023/06/30 02:07:41;;;;;;;4.18;2.42;;;22.10;69.20;;;;;;5074927;28;20024;-74
2023/06/30 02:10:07;;;;;;;11.52;2.45;;;22.10;68.40;;;;;;5074794;28;20070;-75
2023/06/30 02:12:34;;;;;;;6.63;2.55;;;22.10;68.30;;;;;;5074869;28;20040;-75
2023/06/30 02:14:59;;;;;;;4.47;2.20;;;22.10;68.40;;;;;;5074736;28;20035;-74
2023/06/30 02:17:31;;;;;;;5.90;2.25;;;22.00;68.30;;;;;;5074118;28;20033;-75
2023/06/30 02:19:57;;;;;;;7.65;2.17;;;22.00;68.50;;;;;;5074891;28;20032;-75
2023/06/30 02:22:23;;;;;;;3.78;1.70;;;21.90;68.60;;;;;;5074494;28;20429;-75
2023/06/30 02:24:49;;;;;;;4.60;2.00;;;21.90;68.90;;;;;;5074578;28;20100;-75
2023/06/30 02:27:16;;;;;;;3.45;1.90;;;21.80;69.00;;;;;;5073159;28;20115;-75
2023/06/30 02:29:43;;;;;;;4.93;2.10;;;21.80;69.20;;;;;;5074697;28;20021;-75
2023/06/30 02:32:09;;;;;;;4.55;2.40;;;21.80;69.50;;;;;;5074206;28;20047;-75
2023/06/30 02:34:35;;;;;;;6.20;2.30;;;21.80;69.60;;;;;;5074339;28;20028;-75
2023/06/30 02:37:01;;;;;;;7.47;2.60;;;21.80;69.60;;;;;;5074597;28;20029;-74
2023/06/30 02:39:27;;;;;;;4.60;2.22;;;21.70;69.70;;;;;;5074284;28;20028;-75
2023/06/30 02:41:52;;;;;;;3.95;2.15;;;21.70;69.60;;;;;;5074136;28;20128;-74
2023/06/30 02:44:18;;;;;;;8.25;2.42;;;21.70;69.50;;;;;;5074376;28;20020;-75
2023/06/30 02:46:44;;;;;;;5.32;2.25;;;21.70;69.40;;;;;;5074030;28;20530;-75
2023/06/30 02:49:10;;;;;;;6.53;2.38;;;21.60;69.50;;;;;;5073588;28;20016;-74
2023/06/30 02:51:36;;;;;;;4.45;2.10;;;21.60;69.90;;;;;;5073914;28;20392;-75
2023/06/30 02:54:01;;;;;;;6.25;2.17;;;21.60;70.00;;;;;;5072641;28;20036;-75
2023/06/30 02:56:27;;;;;;;3.67;2.10;;;21.60;70.00;;;;;;5073724;28;20024;-75
2023/06/30 02:58:53;;;;;;;4.70;1.83;;;21.50;70.00;;;;;;5073936;28;20021;-75
2023/06/30 03:01:21;;;;;;;5.15;2.10;;;21.50;69.70;;;;;;5073667;28;20112;-76
2023/06/30 03:03:47;;;;;;;7.55;2.08;;;21.50;69.60;;;;;;5073852;28;20031;-75
2023/06/30 03:06:13;;;;;;;3.60;2.10;;;21.50;69.40;;;;;;5073936;28;20464;-75
2023/06/30 03:08:39;;;;;;;7.03;2.40;;;21.50;69.50;;;;;;5073723;28;20050;-74
2023/06/30 03:11:05;;;;;;;6.97;2.45;;;21.50;69.60;;;;;;5073695;28;20051;-74
2023/06/30 03:13:31;;;;;;;5.85;2.50;;;21.50;69.80;;;;;;5073501;28;20025;-75
2023/06/30 03:15:56;;;;;;;6.28;2.08;;;21.50;69.80;;;;;;5073337;28;20036;-75
2023/06/30 03:18:22;;;;;;;4.68;2.10;;;21.40;70.50;;;;;;5073443;28;20032;-75
2023/06/30 03:20:48;;;;;;;4.93;2.00;;;21.40;70.00;;;;;;5073542;28;20103;-76
2023/06/30 03:23:14;;;;;;;4.18;2.40;;;21.40;70.20;;;;;;5073377;28;20035;-75
2023/06/30 03:25:41;;;;;;;4.25;2.15;;;21.40;70.40;;;;;;5073191;28;20036;-75
2023/06/30 03:28:06;;;;;;;5.65;2.10;;;21.30;70.40;;;;;;5073372;28;20028;-74
2023/06/30 03:30:32;;;;;;;2.90;2.08;;;21.30;70.80;;;;;;5072980;28;20377;-76
2023/06/30 03:32:58;;;;;;;6.80;2.60;;;21.30;71.00;;;;;;5073102;28;20032;-75
2023/06/30 03:35:24;;;;;;;8.60;2.67;;;21.30;70.70;;;;;;5073264;28;20025;-75
2023/06/30 03:37:49;;;;;;;6.80;2.30;;;21.30;70.50;;;;;;5073141;28;20074;-74
2023/06/30 03:40:15;;;;;;;13.38;2.45;;;21.30;70.50;;;;;;5073064;28;20025;-76
2023/06/30 03:42:41;;;;;;;12.40;2.47;;;21.20;70.50;;;;;;5073060;28;20039;-75
2023/06/30 03:45:07;;;;;;;6.25;2.17;;;21.20;70.90;;;;;;5072847;28;20035;-75
2023/06/30 03:47:33;;;;;;;9.57;2.25;;;21.20;71.10;;;;;;5073311;28;20385;-75
2023/06/30 03:49:59;;;;;;;4.30;2.47;;;21.10;71.30;;;;;;5072929;28;20054;-75
2023/06/30 03:52:24;;;;;;;6.07;2.30;;;21.10;71.40;;;;;;5071792;28;20033;-75
2023/06/30 03:54:51;;;;;;;9.98;2.33;;;21.10;71.40;;;;;;5072894;28;20021;-74
2023/06/30 03:57:17;;;;;;;9.38;2.67;;;21.10;71.60;;;;;;5072808;28;20097;-75
2023/06/30 03:59:42;;;;;;;11.00;2.60;;;21.00;71.90;;;;;;5072938;28;20480;-76
2023/06/30 04:02:08;;;;;;;9.25;2.55;;;21.00;71.90;;;;;;5072889;28;20041;-74
2023/06/30 04:04:34;;;;;;;7.85;2.55;;;21.00;72.10;;;;;;5072796;28;20409;-75
2023/06/30 04:07:00;;;;;;;6.13;2.25;;;21.00;72.50;;;;;;5072873;28;20465;-76
2023/06/30 04:09:25;;;;;;;9.13;2.10;;;21.00;72.60;;;;;;5072481;28;20646;-75
2023/06/30 04:11:52;;;;;;;7.43;2.30;;;21.00;72.70;;;;;;5072522;28;20028;-77
2023/06/30 04:14:19;;;;;;;4.18;2.35;;;21.00;72.80;;;;;;5072557;28;20465;-75
2023/06/30 04:16:45;;;;;;;4.80;2.10;;;21.00;73.00;;;;;;5072469;28;20143;-75
2023/06/30 04:19:11;;;;;;;3.78;2.15;;;21.00;73.10;;;;;;5072595;28;20052;-75
2023/06/30 04:21:36;;;;;;;6.38;1.85;;;21.00;73.20;;;;;;5072531;28;20392;-75
2023/06/30 04:24:02;;;;;;;4.00;2.10;;;21.00;73.10;;;;;;5072463;28;20074;-75
2023/06/30 04:26:28;;;;;;;5.57;2.30;;;21.00;72.90;;;;;;5072779;28;20400;-75
2023/06/30 04:28:54;;;;;;;5.97;1.90;;;21.10;72.80;;;;;;5072561;28;20078;-75
2023/06/30 04:31:20;;;;;;;6.32;2.15;;;21.10;72.70;;;;;;5071464;28;20028;-75
2023/06/30 04:33:45;;;;;;;12.02;2.28;;;21.10;72.80;;;;;;5072637;28;20029;-76
2023/06/30 04:36:11;;;;;;;8.70;2.10;;;21.10;72.60;;;;;;5072846;28;20054;-76
2023/06/30 04:38:37;;;;;;;3.83;2.40;;;21.20;72.50;;;;;;5072136;28;20539;-75
2023/06/30 04:41:02;;;;;;;5.63;1.92;;;21.20;72.50;;;;;;5072092;28;20063;-76
2023/06/30 04:43:28;;;;;;;7.95;2.10;;;21.30;72.40;;;;;;5072452;28;20086;-75
2023/06/30 04:45:54;;;;;;;10.13;2.53;;;21.30;72.20;;;;;;5072758;28;20024;-76
2023/06/30 04:48:19;;;;;;;5.32;2.22;;;21.30;72.20;;;;;;5072354;28;20025;-75
2023/06/30 04:50:45;;;;;;;6.65;2.33;;;21.30;72.00;;;;;;5072437;28;20067;-80
2023/06/30 04:53:11;;;;;;;6.95;2.28;;;21.40;71.80;;;;;;5071089;28;20025;-79
2023/06/30 04:55:37;;;;;;;4.60;2.38;;;21.40;72.00;;;;;;5073240;28;20021;-78
2023/06/30 04:58:02;;;;;;;6.72;2.25;;;21.40;72.30;;;;;;5076220;28;20056;-79
2023/06/30 05:00:28;;;;;;;8.63;2.30;;;21.50;73.20;;;;;;5076441;28;20032;-78
2023/06/30 05:02:56;;;;;;;3.47;2.05;;;21.50;72.60;;;;;;5076193;28;20036;-78
2023/06/30 05:05:21;;;;;;;7.45;2.20;;;21.50;72.80;;;;;;5075926;28;20017;-73
2023/06/30 05:07:47;;;;;;;3.15;2.05;;;21.50;72.80;;;;;;5075517;28;20036;-76
2023/06/30 05:10:13;;;;;;;4.40;2.42;;;21.50;72.80;;;;;;5075887;28;20021;-77
2023/06/30 05:12:39;;;;;;;4.10;2.35;;;21.50;72.70;;;;;;5075870;28;20074;-75
2023/06/30 05:15:05;;;;;;;4.85;2.38;;;21.60;73.40;;;;;;5075730;28;20093;-78
2023/06/30 05:17:31;;;;;;;5.60;1.70;;;21.60;72.50;;;;;;5075611;28;20049;-77
2023/06/30 05:19:56;;;;;;;2.88;2.08;;;21.60;72.10;;;;;;5078446;28;20044;-77
2023/06/30 05:22:22;;;;;;;3.90;2.00;;;21.60;71.80;;;;;;5075450;28;20041;-78
2023/06/30 05:24:49;;;;;;;8.30;2.17;;;21.60;71.50;;;;;;5075453;28;20027;-77
2023/06/30 05:27:15;;;;;;;9.48;2.30;;;21.70;71.30;;;;;;5075585;28;20029;-77
2023/06/30 05:29:40;;;;;;;5.93;2.55;;;21.70;71.20;;;;;;5075644;28;20048;-77
2023/06/30 05:32:07;;;;;;;12.88;3.40;;;21.70;71.10;;;;;;5075631;28;20028;-77
2023/06/30 05:34:33;;;;;;;11.75;3.72;;;21.70;71.20;;;;;;5075751;28;20535;-76
2023/06/30 05:36:59;;;;;;;15.02;3.33;;;21.70;71.70;;;;;;5075551;28;20016;-76
2023/06/30 05:39:25;;;;;;;16.23;3.60;;;21.70;72.10;;;;;;5075618;28;20016;-76
2023/06/30 05:41:51;;;;;;;8.82;2.67;;;21.70;72.20;;;;;;5075372;28;20064;-76
2023/06/30 05:44:16;;;;;;;12.32;3.05;;;21.80;72.40;;;;;;5075559;28;20025;-75
2023/06/30 05:46:42;;;;;;;10.60;2.30;;;21.80;72.60;;;;;;5075591;28;20091;-76
2023/06/30 05:49:08;;;;;;;11.48;3.15;;;21.80;72.50;;;;;;5075550;28;20075;-75
2023/06/30 05:51:37;;;;;;;11.05;3.08;;;21.90;72.60;;;;;;5073980;28;20029;-76
2023/06/30 05:54:03;;;;;;;7.30;2.42;;;21.80;72.50;;;;;;5075141;28;20032;-75
2023/06/30 05:56:29;;;;;;;10.00;2.35;;;21.90;72.50;;;;;;5075226;28;20388;-76
2023/06/30 05:58:55;;;;;;;12.80;2.60;;;21.90;72.80;;;;;;5075451;28;20045;-75
2023/06/30 06:01:21;;;;;;;9.68;2.72;;;21.90;72.10;;;;;;5075028;28;20040;-77
2023/06/30 06:03:47;;;;;;;9.90;2.15;;;22.00;72.50;;;;;;5075270;28;20401;-75
2023/06/30 06:06:13;;;;;;;6.75;2.67;;;22.00;72.40;;;;;;5074400;28;20528;-75
2023/06/30 06:08:42;;;;;;;26.60;3.83;;;22.10;71.40;;;;;;5073706;28;20020;-76
2023/06/30 06:11:08;;;;;;;5.75;2.78;;;22.10;70.80;;;;;;5074813;28;20025;-78
2023/06/30 06:13:35;;;;;;;11.07;2.70;;;22.10;71.20;;;;;;5074863;28;20027;-76
2023/06/30 06:16:01;;;;;;;8.23;2.67;;;22.10;71.30;;;;;;5074710;28;20067;-77
2023/06/30 06:18:27;;;;;;;8.23;2.55;;;22.20;71.40;;;;;;5074852;28;20024;-78
2023/06/30 06:20:53;;;;;;;7.22;2.70;;;22.20;71.40;;;;;;5074373;28;20094;-78
2023/06/30 06:23:20;;;;;;;4.53;2.53;;;22.20;71.40;;;;;;5074419;28;20064;-76
2023/06/30 06:25:45;;;;;;;7.85;2.42;;;22.20;71.10;;;;;;5074815;28;20023;-75
2023/06/30 06:28:11;;;;;;;9.73;2.30;;;22.30;70.90;;;;;;5073194;28;20029;-75
2023/06/30 06:30:37;;;;;;;6.05;2.30;;;22.30;70.60;;;;;;5074489;28;20016;-76
2023/06/30 06:33:03;;;;;;;4.00;2.17;;;22.40;70.50;;;;;;5074282;28;20380;-74
2023/06/30 06:35:28;;;;;;;6.05;2.20;;;22.40;70.30;;;;;;5074404;28;20066;-75
2023/06/30 06:37:54;;;;;;;11.98;2.28;;;22.40;69.90;;;;;;5074487;28;20053;-74
2023/06/30 06:40:20;;;;;;;5.43;2.13;;;22.50;70.20;;;;;;5074379;28;20020;-73
2023/06/30 06:42:46;;;;;;;9.10;2.00;;;22.50;70.30;;;;;;5074204;28;20105;-74
2023/06/30 06:45:12;;;;;;;6.55;2.25;;;22.60;70.40;;;;;;5074381;28;20487;-74
2023/06/30 06:48:15;;;;;;;4.82;2.30;;;22.60;70.20;;;;;;5074135;28;20071;-74
2023/06/30 06:50:41;;;;;;;7.97;2.30;;;22.70;69.40;;;;;;5073932;28;20119;-73
2023/06/30 06:53:07;;;;;;;7.15;2.33;;;22.70;69.10;;;;;;5072861;28;20112;-73
2023/06/30 06:55:33;;;;;;;7.00;2.58;;;22.80;68.90;;;;;;5074376;28;20108;-73
2023/06/30 06:57:59;;;;;;;9.07;2.72;;;22.80;68.70;;;;;;5073848;28;20029;-72
2023/06/30 07:00:24;;;;;;;7.43;2.28;;;22.90;68.20;;;;;;5073757;28;20028;-73
2023/06/30 07:02:51;;;;;;;4.00;2.20;;;22.90;67.90;;;;;;5073401;28;20499;-72
2023/06/30 07:05:17;;;;;;;4.45;2.00;;;23.00;68.30;;;;;;5073524;28;20534;-73
2023/06/30 07:07:43;;;;;;;12.63;2.75;;;23.00;68.40;;;;;;5073497;28;20024;-72
2023/06/30 07:10:09;;;;;;;3.13;2.08;;;23.10;68.70;;;;;;5073647;28;20062;-73
2023/06/30 07:12:35;;;;;;;7.70;2.90;;;23.10;68.20;;;;;;5073541;28;20024;-73
2023/06/30 07:15:01;;;;;;;8.65;2.22;;;23.20;68.00;;;;;;5073128;28;20031;-73
2023/06/30 07:17:28;;;;;;;7.18;2.20;;;23.20;67.70;;;;;;5072892;28;20060;-73
2023/06/30 07:19:53;;;;;;;6.43;2.33;;;23.20;67.80;;;;;;5072977;28;20033;-74
2023/06/30 07:22:21;;;;;;;5.22;2.28;;;23.30;67.50;;;;;;5073585;28;20035;-73
2023/06/30 07:24:47;;;;;;;4.43;2.05;;;23.30;67.30;;;;;;5073970;28;20024;-73
2023/06/30 07:27:13;;;;;;;4.03;2.00;;;23.40;66.50;;;;;;5073214;28;20651;-73
2023/06/30 07:29:38;;;;;;;5.47;1.98;;;23.40;66.80;;;;;;5073440;28;20091;-73
2023/06/30 07:32:04;;;;;;;7.75;2.47;;;23.50;67.10;;;;;;5073416;28;20055;-72
2023/06/30 07:34:33;;;;;;;4.80;2.00;;;23.50;66.70;;;;;;5073664;28;20346;-72
2023/06/30 07:36:59;;;;;;;5.22;1.80;;;23.60;66.00;;;;;;5073362;28;20039;-73
2023/06/30 07:39:25;;;;;;;8.70;2.15;;;23.60;65.40;;;;;;5072961;28;20451;-73
2023/06/30 07:41:51;;;;;;;4.20;1.90;;;23.70;65.20;;;;;;5073004;28;20107;-72
2023/06/30 07:44:19;;;;;;;4.32;1.88;;;23.70;65.00;;;;;;5073071;28;20029;-73
2023/06/30 07:46:45;;;;;;;4.90;1.88;;;23.80;64.60;;;;;;5073032;28;20025;-72
2023/06/30 07:49:11;;;;;;;6.63;2.00;;;23.90;64.10;;;;;;5073155;28;20066;-73
2023/06/30 07:51:36;;;;;;;4.18;1.90;;;23.90;63.70;;;;;;5072124;28;20107;-73
2023/06/30 07:54:02;;;;;;;6.50;1.90;;;23.90;63.70;;;;;;5072810;28;20017;-73
2023/06/30 07:56:28;;;;;;;13.57;2.42;;;24.00;63.90;;;;;;5072652;28;20016;-74
2023/06/30 07:58:54;;;;;;;7.90;1.77;;;24.00;63.60;;;;;;5072691;28;20025;-73
2023/06/30 08:01:19;;;;;;;10.90;1.80;;;24.10;63.00;;;;;;5072728;28;20028;-74
2023/06/30 08:03:46;;;;;;;3.00;1.73;;;24.10;63.40;;;;;;5072870;28;20032;-72
2023/06/30 08:06:12;;;;;;;2.85;1.95;;;24.20;62.60;;;;;;5072989;28;20031;-72
2023/06/30 08:08:37;;;;;;;5.53;1.95;;;24.20;61.50;;;;;;5072981;28;20016;-72
2023/06/30 08:11:03;;;;;;;7.07;1.77;;;24.30;61.20;;;;;;5072622;28;20052;-72
2023/06/30 08:13:29;;;;;;;4.88;1.73;;;24.30;60.50;;;;;;5072664;28;20021;-72
2023/06/30 08:15:54;;;;;;;4.68;1.90;;;24.30;60.90;;;;;;5072409;28;20102;-72
2023/06/30 08:18:20;;;;;;;2.72;1.58;;;24.40;61.50;;;;;;5072501;28;20054;-72
2023/06/30 08:20:46;;;;;;;6.18;1.73;;;24.50;61.10;;;;;;5072588;28;20124;-73
2023/06/30 08:23:14;;;;;;;2.88;1.60;;;24.50;59.60;;;;;;5072906;28;20074;-72
2023/06/30 08:25:40;;;;;;;5.03;1.83;;;24.60;58.90;;;;;;5076713;28;20537;-73
2023/06/30 08:28:06;;;;;;;5.75;1.60;;;24.60;58.60;;;;;;5081320;28;20024;-72
2023/06/30 08:30:31;;;;;;;1.60;1.40;;;24.70;58.40;;;;;;5087431;28;20027;-73
2023/06/30 08:32:57;;;;;;;4.32;1.40;;;24.70;58.70;;;;;;5092998;28;20039;-73
2023/06/30 08:35:23;;;;;;;5.82;2.00;;;24.80;57.70;;;;;;5077381;28;20407;-73
2023/06/30 08:37:49;;;;;;;8.02;1.95;;;24.80;57.70;;;;;;5076533;28;20024;-73
2023/06/30 08:40:26;;;;;;;4.82;1.67;;;24.90;57.90;;;;;;5076465;28;20028;-74
2023/06/30 08:42:53;;;;;;;6.97;1.75;;;24.90;57.90;;;;;;5076341;28;20044;-72
2023/06/30 08:45:23;;;;;;;4.35;1.67;;;25.00;58.60;;;;;;5076513;28;20021;-72
2023/06/30 08:47:49;;;;;;;4.85;1.90;;;25.00;58.40;;;;;;5076326;28;20529;-73
2023/06/30 08:50:15;;;;;;;3.92;1.77;;;25.10;58.30;;;;;;5075067;28;20017;-73
2023/06/30 08:52:41;;;;;;;4.30;1.65;;;25.10;58.30;;;;;;5076048;28;20043;-72
2023/06/30 08:55:09;;;;;;;4.25;1.83;;;25.20;58.90;;;;;;5075813;28;20456;-72
2023/06/30 08:57:35;;;;;;;6.60;1.85;;;25.20;58.60;;;;;;5076392;28;20029;-73
2023/06/30 09:00:01;;;;;;;9.50;1.70;;;25.30;58.60;;;;;;5076018;28;20028;-72
2023/06/30 09:02:28;;;;;;;5.25;1.80;;;25.30;57.80;;;;;;5076130;28;20045;-72
2023/06/30 09:04:54;;;;;;;3.78;1.42;;;25.40;57.70;;;;;;5076078;28;20048;-72
2023/06/30 09:07:28;;;;;;;5.57;1.73;;;25.50;57.60;;;;;;5075515;28;20031;-72
2023/06/30 09:09:56;;;;;;;4.57;1.90;;;25.50;57.10;;;;;;5075715;28;20032;-71
2023/06/30 09:12:24;;;;;;;5.25;1.80;;;25.60;56.50;;;;;;5075798;28;20024;-71
2023/06/30 09:14:52;;;;;;;5.30;1.80;;;25.70;57.20;;;;;;5083737;22;20722;-69
2023/06/30 09:17:18;;;;;;;3.60;1.98;;;25.80;55.90;;;;;;5075848;28;20086;-71
2023/06/30 09:19:45;;;;;;;6.50;1.80;;;25.70;55.40;;;;;;5075724;28;20025;-71
2023/06/30 09:22:11;;;;;;;2.22;1.52;;;25.80;55.20;;;;;;5075778;28;20114;-71
2023/06/30 09:24:37;;;;;;;6.70;1.70;;;25.80;55.60;;;;;;5075674;28;20517;-70
2023/06/30 09:27:03;;;;;;;4.13;1.77;;;25.80;56.20;;;;;;5075540;28;20024;-71
2023/06/30 09:29:35;;;;;;;3.33;1.52;;;25.90;56.90;;;;;;5075792;28;20017;-70
2023/06/30 09:32:02;;;;;;;4.55;1.60;;;25.90;56.70;;;;;;5075457;28;20032;-70
2023/06/30 09:34:28;;;;;;;4.90;1.90;;;26.00;56.90;;;;;;5075554;28;20025;-71
2023/06/30 09:36:54;;;;;;;4.15;2.00;;;26.00;56.70;;;;;;5075343;28;20029;-71
2023/06/30 09:39:21;;;;;;;6.82;2.03;;;26.10;57.00;;;;;;5057613;28;20025;-71
2023/06/30 09:41:48;;;;;;;3.40;1.85;;;26.10;56.40;;;;;;5074440;28;20082;-71
2023/06/30 09:44:22;;;;;;;5.32;1.85;;;26.20;55.70;;;;;;5075614;28;20033;-70
2023/06/30 09:46:52;;;;;;;8.50;1.73;;;26.20;56.30;;;;;;5074780;28;20100;-70
2023/06/30 09:49:32;;;;;;;8.48;1.75;;;26.20;56.60;;;;;;5075142;28;20039;-71
2023/06/30 09:52:01;;;;;;;7.22;1.83;;;26.20;56.20;;;;;;5075303;28;20024;-71
2023/06/30 09:54:27;;;;;;;6.93;1.90;;;26.30;56.10;;;;;;5075195;28;20020;-70
2023/06/30 09:57:00;;;;;;;6.93;2.30;;;26.30;55.90;;;;;;5075381;28;20506;-71
2023/06/30 09:59:27;;;;;;;6.25;1.92;;;26.30;56.00;;;;;;5075106;28;20063;-71
2023/06/30 10:01:54;;;;;;;5.82;1.90;;;26.40;56.70;;;;;;5075159;28;20028;-70
2023/06/30 10:04:20;;;;;;;6.63;1.98;;;26.40;57.00;;;;;;5074785;28;20032;-70
2023/06/30 10:06:47;;;;;;;5.00;1.95;;;26.40;56.70;;;;;;5074929;28;20029;-70
2023/06/30 10:09:16;;;;;;;7.53;1.92;;;26.50;56.30;;;;;;5074833;28;20029;-70
2023/06/30 10:11:44;;;;;;;6.13;1.70;;;26.50;56.60;;;;;;5075512;28;20052;-70
2023/06/30 10:14:13;;;;;;;5.40;1.83;;;26.50;56.70;;;;;;5074884;28;20353;-71
2023/06/30 10:16:40;;;;;;;6.43;2.28;;;26.50;58.00;;;;;;5074616;28;20045;-73
2023/06/30 10:19:07;;;;;;;2.97;1.70;;;26.60;57.80;;;;;;5074435;28;20411;-75
2023/06/30 10:21:34;;;;;;;6.60;1.95;;;26.60;57.20;;;;;;5074884;28;20033;-70
2023/06/30 10:24:02;;;;;;;6.43;1.98;;;26.70;56.40;;;;;;5056849;28;20056;-71
2023/06/30 10:26:29;;;;;;;3.13;1.50;;;26.70;56.00;;;;;;5074298;28;20070;-71
2023/06/30 10:28:55;;;;;;;5.45;1.42;;;26.80;56.10;;;;;;5074371;28;20016;-71
2023/06/30 10:31:21;;;;;;;6.07;1.85;;;26.80;55.80;;;;;;5056684;28;20074;-71
2023/06/30 10:33:47;;;;;;;9.82;1.80;;;26.90;56.30;;;;;;5075254;28;20020;-71
2023/06/30 10:36:15;;;;;;;8.13;2.00;;;26.90;56.50;;;;;;5074427;28;20053;-71
2023/06/30 10:38:43;;;;;;;4.20;1.70;;;26.90;56.00;;;;;;5074468;28;20055;-71
2023/06/30 10:41:19;;;;;;;4.95;1.75;;;27.00;56.10;;;;;;5074063;28;20020;-71
2023/06/30 10:44:03;;;;;;;2.33;1.63;;;26.90;56.20;;;;;;5074274;28;20017;-71
2023/06/30 10:46:47;;;;;;;5.22;1.80;;;27.00;56.90;;;;;;5074315;28;20028;-71
2023/06/30 10:49:32;;;;;;;3.13;1.80;;;27.00;57.70;;;;;;5073990;28;20059;-71
2023/06/30 10:52:00;;;;;;;3.92;1.67;;;27.00;57.30;;;;;;5073856;28;20047;-71
2023/06/30 10:54:30;;;;;;;5.57;1.63;;;27.00;57.40;;;;;;5073820;28;20516;-71
2023/06/30 10:57:08;;;;;;;3.17;2.28;;;27.00;57.50;;;;;;5073613;28;20028;-71
2023/06/30 10:59:38;;;;;;;8.32;1.83;;;27.00;57.90;;;;;;5073957;28;20032;-71
2023/06/30 11:02:21;;;;;;;6.65;1.70;;;26.90;58.00;;;;;;5073635;28;20115;-70
2023/06/30 11:04:48;;;;;;;2.92;1.38;;;26.90;58.20;;;;;;5073602;28;20032;-71
2023/06/30 11:07:28;;;;;;;3.88;1.20;;;26.90;58.30;;;;;;5073889;28;20028;-71
2023/06/30 11:09:53;;;;;;;5.05;1.80;;;26.90;58.30;;;;;;5073606;28;20024;-71
2023/06/30 11:12:23;;;;;;;6.03;1.88;;;26.80;58.60;;;;;;5073388;28;20070;-71
2023/06/30 11:15:00;;;;;;;5.20;1.60;;;26.90;58.90;;;;;;5070223;28;20056;-71
2023/06/30 11:17:51;;;;;;;4.60;1.60;;;26.80;58.60;;;;;;5068666;28;20090;-71
2023/06/30 11:20:17;;;;;;;4.73;1.70;;;26.80;58.70;;;;;;5072025;28;20418;-71
2023/06/30 11:22:55;;;;;;;5.05;1.67;;;26.80;58.80;;;;;;5072672;28;20472;-71
2023/06/30 11:25:20;;;;;;;3.65;1.77;;;26.70;58.80;;;;;;5072346;28;20025;-71
2023/06/30 11:27:47;;;;;;;3.35;1.80;;;26.80;58.90;;;;;;5072900;28;20031;-71
2023/06/30 11:30:23;;;;;;;5.00;1.70;;;26.80;57.90;;;;;;5073135;28;20020;-71
2023/06/30 11:32:58;;;;;;;3.80;1.52;;;26.90;58.00;;;;;;5056693;28;20020;-71
2023/06/30 11:35:25;;;;;;;4.40;1.50;;;26.90;57.90;;;;;;5072488;28;20025;-71
2023/06/30 11:37:53;;;;;;;2.47;1.48;;;27.00;58.10;;;;;;5069196;28;20029;-71
2023/06/30 11:40:21;;;;;;;4.70;1.60;;;27.10;58.70;;;;;;5069289;28;20033;-71
2023/06/30 11:42:47;;;;;;;7.93;1.65;;;27.20;57.40;;;;;;5069776;28;20037;-71
2023/06/30 11:45:19;;;;;;;4.75;1.50;;;27.20;57.30;;;;;;5071238;28;20025;-70
2023/06/30 11:47:48;;;;;;;5.53;1.52;;;27.30;57.80;;;;;;5072140;28;20064;-71
2023/06/30 11:50:15;;;;;;;2.65;1.50;;;27.40;57.00;;;;;;5072493;28;20040;-71
2023/06/30 11:52:41;;;;;;;2.60;1.20;;;27.40;56.40;;;;;;5072399;28;20028;-71
2023/06/30 11:55:08;;;;;;;4.70;1.50;;;27.40;56.40;;;;;;5072433;28;20099;-70
2023/06/30 11:57:36;;;;;;;1.83;1.50;;;27.40;56.30;;;;;;5072080;28;20024;-72
2023/06/30 12:00:09;;;;;;;6.40;1.70;;;27.50;56.70;;;;;;5071599;28;20039;-72
2023/06/30 12:02:35;;;;;;;7.40;1.60;;;27.50;56.50;;;;;;5072167;28;20036;-71
2023/06/30 12:05:04;;;;;;;5.00;1.48;;;27.60;56.10;;;;;;5072332;28;20027;-72
2023/06/30 12:07:32;;;;;;;3.55;1.70;;;27.70;55.80;;;;;;5072557;28;20043;-72
2023/06/30 12:10:01;;;;;;;5.72;1.65;;;27.80;55.70;;;;;;5072855;28;20486;-71
2023/06/30 12:12:30;;;;;;;2.65;1.45;;;27.80;55.60;;;;;;5072628;28;20476;-75
2023/06/30 12:14:56;;;;;;;3.95;1.60;;;27.90;55.20;;;;;;5054559;28;20609;-71
2023/06/30 12:17:26;;;;;;;2.38;1.50;;;28.00;54.80;;;;;;5072814;28;20103;-71
2023/06/30 12:19:52;;;;;;;4.80;1.52;;;28.00;54.30;;;;;;5072844;28;20460;-72
2023/06/30 12:22:27;;;;;;;7.35;1.75;;;28.10;54.20;;;;;;5072750;28;20040;-72
2023/06/30 12:24:59;;;;;;;4.82;1.50;;;28.00;52.70;;;;;;5072844;28;20070;-72
2023/06/30 12:27:29;;;;;;;7.13;1.58;;;28.00;52.70;;;;;;5054636;28;20039;-71
2023/06/30 12:29:55;;;;;;;9.48;1.67;;;27.80;52.40;;;;;;5073419;28;20020;-72
2023/06/30 12:32:24;;;;;;;5.80;1.58;;;27.80;53.20;;;;;;5075253;28;20021;-72
2023/06/30 12:34:58;;;;;;;4.90;1.30;;;27.70;53.40;;;;;;5082341;28;20025;-71
2023/06/30 12:37:28;;;;;;;2.45;1.27;;;27.60;52.90;;;;;;5077965;28;20048;-73
2023/06/30 12:39:54;;;;;;;5.30;1.63;;;27.60;52.80;;;;;;5072311;28;20031;-72
2023/06/30 12:42:22;;;;;;;4.18;1.80;;;27.50;53.20;;;;;;5072673;28;20380;-72
2023/06/30 12:44:48;;;;;;;5.00;1.40;;;27.40;53.70;;;;;;5072616;28;20032;-74
2023/06/30 12:47:14;;;;;;;7.70;1.63;;;27.40;54.20;;;;;;5072681;28;20021;-73